Time;durP1;ratioP1;P1;durP2;ratioP2;P2;SDS_P1;SDS_P2;PMS_P1;PMS_P2;Temp;Humidity;BMP_temperature;BMP_pressure;BME280_temperature;BME280_humidity;BME280_pressure;Samples;Min_cycle;Max_cycle;Signal;HPM_P1;HPM_P2
2021/09/05 00:01:44;;;;;;;6.80;6.10;;;17.40;99.90;;;;;;5014570;28;20207;-56
2021/09/05 00:04:09;;;;;;;7.37;5.87;;;17.30;99.90;;;;;;5014079;28;20222;-56
2021/09/05 00:06:35;;;;;;;7.97;6.97;;;17.30;99.90;;;;;;5014692;28;20446;-56
2021/09/05 00:09:01;;;;;;;7.00;6.30;;;17.30;99.90;;;;;;5014964;28;20178;-53
2021/09/05 00:11:35;;;;;;;10.33;6.77;;;17.40;99.90;;;;;;5014531;28;20206;-56
2021/09/05 00:14:01;;;;;;;7.57;6.87;;;17.30;99.90;;;;;;5014870;28;20266;-57
2021/09/05 00:16:30;;;;;;;7.97;7.13;;;17.40;99.90;;;;;;5014466;28;20460;-58
2021/09/05 00:18:55;;;;;;;8.53;7.60;;;17.40;99.90;;;;;;5014521;28;20433;-55
2021/09/05 00:21:21;;;;;;;7.30;6.60;;;17.30;99.90;;;;;;5014024;28;20454;-57
2021/09/05 00:23:46;;;;;;;7.07;6.40;;;17.30;99.90;;;;;;5014717;28;20172;-56
2021/09/05 00:26:12;;;;;;;7.07;6.40;;;17.20;99.90;;;;;;5014633;28;20630;-54
2021/09/05 00:28:37;;;;;;;7.63;6.57;;;17.20;99.90;;;;;;5014596;28;20540;-54
2021/09/05 00:31:03;;;;;;;6.93;6.23;;;17.20;99.90;;;;;;5014494;28;20304;-54
2021/09/05 00:33:28;;;;;;;7.10;6.40;;;17.10;99.90;;;;;;5014059;28;20176;-54
2021/09/05 00:35:54;;;;;;;10.03;6.70;;;17.10;99.90;;;;;;5013991;28;20164;-56
2021/09/05 00:38:20;;;;;;;6.87;6.17;;;16.90;99.90;;;;;;5014218;28;20254;-56
2021/09/05 00:40:46;;;;;;;8.23;7.00;;;16.90;99.90;;;;;;5014440;28;20675;-56
2021/09/05 00:43:11;;;;;;;7.70;7.00;;;16.90;99.90;;;;;;5014311;28;20228;-54
2021/09/05 00:45:37;;;;;;;7.27;6.40;;;16.90;99.90;;;;;;5014074;28;20415;-57
2021/09/05 00:48:03;;;;;;;7.67;6.97;;;17.00;99.90;;;;;;5014503;28;20175;-58
2021/09/05 00:50:29;;;;;;;8.07;7.27;;;17.00;99.90;;;;;;5013600;28;20218;-57
2021/09/05 00:52:55;;;;;;;7.60;6.90;;;17.00;99.90;;;;;;5014151;28;20412;-58
2021/09/05 00:55:22;;;;;;;9.10;7.47;;;17.00;99.90;;;;;;5013861;28;20188;-57
2021/09/05 00:57:48;;;;;;;7.23;6.57;;;17.00;99.90;;;;;;5014357;28;20407;-56
2021/09/05 01:00:14;;;;;;;6.63;5.93;;;16.90;99.90;;;;;;5014148;28;20767;-56
2021/09/05 01:02:40;;;;;;;7.50;6.53;;;16.90;99.90;;;;;;5014513;28;20405;-57
2021/09/05 01:05:06;;;;;;;10.70;6.17;;;16.90;99.90;;;;;;5013826;28;20757;-56
2021/09/05 01:07:33;;;;;;;7.60;6.80;;;16.90;99.90;;;;;;5013977;28;20180;-57
2021/09/05 01:09:59;;;;;;;7.97;6.73;;;16.90;99.90;;;;;;5014060;28;20425;-57
2021/09/05 01:12:26;;;;;;;8.07;7.27;;;16.70;99.90;;;;;;5014151;28;20417;-57
2021/09/05 01:14:52;;;;;;;11.37;7.10;;;16.80;99.90;;;;;;5014093;28;20822;-57
2021/09/05 01:17:18;;;;;;;8.20;7.40;;;16.70;99.90;;;;;;5013918;28;20418;-57
2021/09/05 01:19:43;;;;;;;7.67;6.90;;;16.70;99.90;;;;;;5013284;28;20243;-57
2021/09/05 01:22:09;;;;;;;7.33;6.63;;;16.80;99.90;;;;;;5013479;28;20195;-57
2021/09/05 01:24:35;;;;;;;7.50;6.77;;;16.80;99.90;;;;;;5013513;28;20199;-56
2021/09/05 01:27:00;;;;;;;7.50;6.80;;;16.80;99.90;;;;;;5014432;28;20170;-57
2021/09/05 01:29:26;;;;;;;8.07;7.23;;;16.80;99.90;;;;;;5013611;28;20205;-56
2021/09/05 01:31:54;;;;;;;7.87;7.17;;;16.70;99.90;;;;;;5013899;28;20193;-58
2021/09/05 01:34:22;;;;;;;8.30;7.50;;;16.60;99.90;;;;;;5013392;28;20174;-57
2021/09/05 01:36:49;;;;;;;9.07;8.23;;;16.60;99.90;;;;;;5013267;28;20403;-57
2021/09/05 01:39:16;;;;;;;8.07;7.27;;;16.60;99.90;;;;;;5013619;28;20405;-57
2021/09/05 01:41:43;;;;;;;9.23;7.40;;;16.60;99.90;;;;;;5013868;28;20847;-57
2021/09/05 01:44:12;;;;;;;9.33;8.37;;;16.60;99.90;;;;;;5013535;28;20496;-53
2021/09/05 01:46:38;;;;;;;9.33;8.43;;;16.60;99.90;;;;;;5013450;28;20502;-54
2021/09/05 01:49:05;;;;;;;8.63;7.80;;;16.60;99.90;;;;;;5012982;28;20414;-56
2021/09/05 01:51:43;;;;;;;9.07;7.87;;;16.60;99.90;;;;;;5013054;28;20436;-57
2021/09/05 01:54:08;;;;;;;9.37;8.47;;;16.50;99.90;;;;;;5013166;28;20419;-56
2021/09/05 01:56:35;;;;;;;8.70;7.73;;;16.40;99.90;;;;;;5007920;28;20804;-54
2021/09/05 01:59:01;;;;;;;7.47;6.77;;;16.40;99.90;;;;;;5021148;28;20175;-54
2021/09/05 02:01:29;;;;;;;7.87;7.07;;;16.50;99.90;;;;;;5012951;28;20463;-53
2021/09/05 02:03:55;;;;;;;8.73;7.83;;;16.50;99.90;;;;;;5015112;28;20487;-55
2021/09/05 02:06:21;;;;;;;10.10;7.63;;;16.60;99.90;;;;;;5016800;28;20413;-56
2021/09/05 02:08:46;;;;;;;8.77;7.97;;;16.50;99.90;;;;;;5017240;28;20420;-56
2021/09/05 02:11:13;;;;;;;8.37;7.57;;;16.40;99.90;;;;;;5016792;28;20305;-55
2021/09/05 02:13:39;;;;;;;10.23;7.20;;;16.50;99.90;;;;;;5058667;23;20256;-61
2021/09/05 02:16:05;;;;;;;8.07;7.33;;;16.50;99.90;;;;;;5049787;28;20407;-62
2021/09/05 02:18:31;;;;;;;8.43;7.53;;;16.40;99.90;;;;;;5055640;28;20496;-61
2021/09/05 02:20:56;;;;;;;9.13;8.23;;;16.30;99.90;;;;;;5055265;28;20537;-60
2021/09/05 02:23:22;;;;;;;9.50;8.07;;;16.30;99.90;;;;;;5056558;28;20196;-60
2021/09/05 02:25:48;;;;;;;8.70;7.80;;;16.30;99.90;;;;;;5056991;28;20218;-60
2021/09/05 02:28:13;;;;;;;7.50;6.70;;;16.30;99.90;;;;;;5056386;28;20169;-60
2021/09/05 02:30:39;;;;;;;7.80;7.10;;;16.20;99.90;;;;;;5056361;28;20224;-59
2021/09/05 02:33:05;;;;;;;9.83;8.17;;;16.20;99.90;;;;;;5056189;28;20206;-61
2021/09/05 02:35:31;;;;;;;8.63;7.47;;;16.20;99.90;;;;;;5056154;28;20173;-60
2021/09/05 02:37:57;;;;;;;8.40;7.70;;;16.20;99.90;;;;;;5056476;28;20914;-60
2021/09/05 02:40:22;;;;;;;8.67;7.70;;;16.10;99.90;;;;;;5056198;28;20190;-60
2021/09/05 02:42:48;;;;;;;11.70;8.17;;;16.10;99.90;;;;;;5056378;28;20192;-60
2021/09/05 02:45:14;;;;;;;9.20;8.20;;;16.00;99.90;;;;;;5056931;28;20205;-60
2021/09/05 02:47:39;;;;;;;9.40;8.40;;;16.10;99.90;;;;;;5050617;28;20173;-60
2021/09/05 02:50:06;;;;;;;8.43;7.73;;;16.10;99.90;;;;;;5039803;28;20169;-60
2021/09/05 02:52:32;;;;;;;9.63;7.83;;;16.20;99.90;;;;;;5056735;28;20592;-60
2021/09/05 02:54:57;;;;;;;8.47;7.67;;;16.10;99.90;;;;;;5056239;28;20460;-59
2021/09/05 02:57:23;;;;;;;9.37;7.47;;;16.00;99.90;;;;;;5056159;28;20166;-60
2021/09/05 02:59:49;;;;;;;9.47;8.47;;;16.10;99.90;;;;;;5056176;28;20214;-58
2021/09/05 03:02:15;;;;;;;8.43;7.67;;;16.10;99.90;;;;;;5055711;28;20443;-59
2021/09/05 03:04:41;;;;;;;8.53;7.77;;;16.10;99.90;;;;;;5055782;28;20213;-62
2021/09/05 03:07:06;;;;;;;9.10;8.20;;;16.20;99.90;;;;;;5056070;28;20539;-59
2021/09/05 03:09:32;;;;;;;9.70;8.67;;;16.20;99.90;;;;;;5055587;28;20496;-61
2021/09/05 03:11:58;;;;;;;8.07;7.23;;;16.20;99.90;;;;;;5055555;28;20167;-59
2021/09/05 03:14:23;;;;;;;12.37;9.60;;;16.20;99.90;;;;;;5055207;28;20297;-60
2021/09/05 03:16:49;;;;;;;9.30;8.40;;;16.20;99.90;;;;;;5055720;28;20177;-60
2021/09/05 03:19:14;;;;;;;10.20;9.30;;;16.20;99.90;;;;;;5055533;28;20542;-60
2021/09/05 03:21:40;;;;;;;10.43;8.70;;;16.10;99.90;;;;;;5054998;28;20270;-59
2021/09/05 03:24:07;;;;;;;8.97;8.07;;;16.10;99.90;;;;;;5055310;28;20186;-59
2021/09/05 03:26:33;;;;;;;9.30;8.40;;;16.00;99.90;;;;;;5055313;28;20910;-60
2021/09/05 03:28:59;;;;;;;8.30;7.60;;;16.00;99.90;;;;;;5055508;28;20402;-57
2021/09/05 03:31:25;;;;;;;9.93;9.03;;;16.00;99.90;;;;;;5055231;28;20423;-61
2021/09/05 03:33:51;;;;;;;9.53;8.40;;;15.90;99.90;;;;;;5054901;28;20427;-59
2021/09/05 03:36:16;;;;;;;9.00;8.10;;;15.90;99.90;;;;;;5055092;28;20646;-59
2021/09/05 03:38:42;;;;;;;10.30;9.30;;;15.90;99.90;;;;;;5055338;28;20170;-60
2021/09/05 03:41:08;;;;;;;8.83;8.03;;;15.90;99.90;;;;;;5055312;28;20200;-59
2021/09/05 03:43:33;;;;;;;9.87;8.87;;;16.00;99.90;;;;;;5055140;28;20612;-60
2021/09/05 03:45:59;;;;;;;10.40;8.73;;;16.00;99.90;;;;;;5055488;28;20162;-59
2021/09/05 03:48:25;;;;;;;10.67;9.67;;;15.90;99.90;;;;;;5054899;28;20166;-61
2021/09/05 03:50:50;;;;;;;9.83;8.90;;;15.90;99.90;;;;;;5054324;28;20181;-60
2021/09/05 03:53:16;;;;;;;9.00;8.20;;;15.90;99.90;;;;;;5054730;28;20234;-60
2021/09/05 03:55:42;;;;;;;8.90;7.97;;;15.80;99.90;;;;;;5054858;28;20197;-61
2021/09/05 03:58:08;;;;;;;13.40;9.90;;;15.80;99.90;;;;;;5054739;28;20177;-59
2021/09/05 04:00:33;;;;;;;10.63;9.57;;;15.70;99.90;;;;;;5054841;28;20666;-61
2021/09/05 04:02:59;;;;;;;8.93;8.03;;;15.70;99.90;;;;;;5054832;28;20193;-60
2021/09/05 04:05:25;;;;;;;11.10;9.40;;;15.80;99.90;;;;;;5054100;28;20632;-59
2021/09/05 04:10:29;;;;;;;9.23;8.17;;;15.80;99.90;;;;;;5054511;28;20525;-61
2021/09/05 04:12:55;;;;;;;8.23;7.53;;;15.80;99.90;;;;;;5054133;28;20463;-61
2021/09/05 04:15:20;;;;;;;8.80;8.00;;;15.80;99.90;;;;;;5054446;28;20419;-61
2021/09/05 04:17:46;;;;;;;9.07;8.17;;;15.70;99.90;;;;;;5054562;28;20207;-60
2021/09/05 04:20:12;;;;;;;9.50;8.50;;;15.80;99.90;;;;;;5053781;28;20225;-61
2021/09/05 04:22:37;;;;;;;9.83;8.93;;;15.70;99.90;;;;;;5054393;28;20201;-59
2021/09/05 04:25:04;;;;;;;8.60;7.90;;;15.70;99.90;;;;;;5052870;28;20665;-61
2021/09/05 04:27:30;;;;;;;9.13;8.23;;;15.70;99.90;;;;;;5053562;28;20167;-61
2021/09/05 04:29:56;;;;;;;9.63;8.67;;;15.60;99.90;;;;;;5054289;28;20408;-60
2021/09/05 04:32:21;;;;;;;9.53;8.30;;;15.60;99.90;;;;;;5054261;28;20263;-61
2021/09/05 04:34:48;;;;;;;8.67;7.90;;;15.60;99.90;;;;;;5053793;28;20425;-60
2021/09/05 04:37:16;;;;;;;8.60;7.80;;;15.70;99.90;;;;;;5053673;28;20223;-61
2021/09/05 04:39:41;;;;;;;9.20;8.40;;;15.70;99.90;;;;;;5054268;28;20871;-61
2021/09/05 04:42:07;;;;;;;9.10;8.30;;;15.70;99.90;;;;;;5054074;28;20637;-60
2021/09/05 04:44:32;;;;;;;9.47;8.57;;;15.70;99.90;;;;;;5054082;28;20192;-60
2021/09/05 04:46:58;;;;;;;9.37;8.47;;;15.70;99.90;;;;;;5054124;28;20182;-61
2021/09/05 04:49:24;;;;;;;10.13;8.47;;;15.80;99.90;;;;;;5053440;28;20181;-61
2021/09/05 04:51:49;;;;;;;8.83;8.03;;;15.80;99.90;;;;;;5044329;28;20181;-59
2021/09/05 04:54:15;;;;;;;8.50;7.50;;;15.80;99.90;;;;;;5033724;28;20252;-60
2021/09/05 04:56:40;;;;;;;8.53;7.53;;;15.80;99.90;;;;;;5033667;28;20169;-60
2021/09/05 04:59:06;;;;;;;9.50;7.97;;;15.80;99.90;;;;;;5033910;28;20175;-59
2021/09/05 05:01:32;;;;;;;9.37;8.53;;;15.80;99.90;;;;;;5033536;28;20229;-60
2021/09/05 05:03:57;;;;;;;9.07;8.27;;;15.80;99.90;;;;;;5033466;28;20245;-60
2021/09/05 05:06:23;;;;;;;8.13;7.43;;;15.80;99.90;;;;;;5037978;28;20183;-59
2021/09/05 05:08:50;;;;;;;8.70;7.83;;;15.70;99.90;;;;;;5040295;28;20173;-60
2021/09/05 05:11:16;;;;;;;9.47;8.50;;;15.60;99.90;;;;;;5033741;28;20167;-60
2021/09/05 05:13:42;;;;;;;9.27;8.33;;;15.60;99.90;;;;;;5033237;28;20455;-60
2021/09/05 05:16:08;;;;;;;10.07;9.07;;;15.60;99.90;;;;;;5033621;28;20420;-60
2021/09/05 05:18:34;;;;;;;8.67;7.50;;;15.60;99.90;;;;;;5033301;28;20902;-60
2021/09/05 05:20:59;;;;;;;8.80;8.00;;;15.60;99.90;;;;;;5044458;28;20245;-60
2021/09/05 05:23:26;;;;;;;9.37;8.47;;;15.70;99.90;;;;;;5053371;28;20217;-60
2021/09/05 05:25:52;;;;;;;9.00;8.20;;;15.80;99.90;;;;;;5053782;28;20175;-60
2021/09/05 05:28:17;;;;;;;9.07;8.17;;;15.80;99.90;;;;;;5053187;28;20485;-60
2021/09/05 05:30:43;;;;;;;9.20;8.40;;;15.80;99.90;;;;;;5053372;28;20893;-60
2021/09/05 05:33:09;;;;;;;9.93;9.00;;;15.70;99.90;;;;;;5053304;28;20227;-60
2021/09/05 05:35:35;;;;;;;9.50;8.57;;;15.70;99.90;;;;;;5052535;28;20408;-57
2021/09/05 05:38:01;;;;;;;8.93;7.90;;;15.60;99.90;;;;;;5052375;28;20182;-60
2021/09/05 05:40:26;;;;;;;10.70;9.70;;;15.70;99.90;;;;;;5052884;28;20182;-61
2021/09/05 05:42:52;;;;;;;10.37;9.47;;;15.80;99.90;;;;;;5052959;28;20203;-60
2021/09/05 05:45:18;;;;;;;9.87;8.97;;;15.90;99.90;;;;;;5052939;28;20167;-60
2021/09/05 05:47:44;;;;;;;9.87;8.83;;;16.00;99.90;;;;;;5053239;28;20412;-59
2021/09/05 05:50:10;;;;;;;9.17;8.27;;;16.00;99.90;;;;;;5052419;28;20177;-60
2021/09/05 05:52:36;;;;;;;13.47;9.73;;;16.00;99.90;;;;;;5052835;28;20441;-61
2021/09/05 05:55:02;;;;;;;10.57;9.57;;;16.00;99.90;;;;;;5053189;28;20174;-61
2021/09/05 05:57:28;;;;;;;10.47;9.47;;;16.10;99.90;;;;;;5053732;28;20900;-60
2021/09/05 05:59:53;;;;;;;9.83;8.90;;;16.10;99.90;;;;;;5053088;28;20183;-61
2021/09/05 06:02:19;;;;;;;9.73;8.73;;;16.10;99.90;;;;;;5052685;28;20719;-60
2021/09/05 06:04:45;;;;;;;14.50;9.80;;;16.20;99.90;;;;;;5052801;28;20170;-61
2021/09/05 06:07:11;;;;;;;10.00;9.10;;;16.20;99.90;;;;;;5052619;28;20169;-61
2021/09/05 06:09:42;;;;;;;10.70;9.47;;;16.30;99.90;;;;;;5052773;28;20400;-61
2021/09/05 06:12:08;;;;;;;11.43;10.33;;;16.40;99.90;;;;;;5053042;28;20205;-60
2021/09/05 06:14:35;;;;;;;10.50;9.40;;;16.50;99.90;;;;;;5052583;28;20851;-60
2021/09/05 06:17:00;;;;;;;9.87;8.93;;;16.60;99.90;;;;;;5052659;28;20514;-60
2021/09/05 06:19:27;;;;;;;10.17;9.27;;;16.60;99.90;;;;;;5052736;28;20855;-60
2021/09/05 06:21:52;;;;;;;10.03;9.03;;;16.70;99.90;;;;;;5052203;28;20201;-60
2021/09/05 06:24:18;;;;;;;10.77;9.50;;;16.70;99.90;;;;;;5052515;28;20523;-61
2021/09/05 06:26:43;;;;;;;9.80;8.80;;;16.80;99.90;;;;;;5052518;28;20165;-59
2021/09/05 06:29:09;;;;;;;9.90;9.00;;;16.90;99.90;;;;;;5053108;28;20177;-61
2021/09/05 06:31:35;;;;;;;14.00;9.50;;;17.10;99.90;;;;;;5052519;28;20280;-60
2021/09/05 06:34:01;;;;;;;9.63;8.67;;;17.20;99.90;;;;;;5052488;28;20251;-61
2021/09/05 06:36:27;;;;;;;9.57;8.67;;;17.20;99.90;;;;;;5052149;28;20412;-61
2021/09/05 06:38:53;;;;;;;9.93;9.03;;;17.30;99.90;;;;;;5052495;28;20413;-61
2021/09/05 06:41:18;;;;;;;10.13;9.13;;;17.30;99.90;;;;;;5052366;28;20558;-60
2021/09/05 06:43:44;;;;;;;10.33;9.30;;;17.40;99.90;;;;;;5052484;28;20233;-59
2021/09/05 06:46:09;;;;;;;10.60;9.60;;;17.50;99.90;;;;;;5052345;28;20170;-60
2021/09/05 06:48:35;;;;;;;11.03;10.00;;;17.60;99.90;;;;;;5052808;28;20700;-60
2021/09/05 06:51:00;;;;;;;10.47;9.37;;;17.80;99.90;;;;;;5055559;28;20178;-60
2021/09/05 06:53:26;;;;;;;11.27;9.80;;;17.90;99.90;;;;;;5043887;28;20195;-61
2021/09/05 06:55:52;;;;;;;10.23;9.23;;;18.00;99.90;;;;;;5036279;28;20167;-61
2021/09/05 06:58:17;;;;;;;9.50;8.63;;;18.10;99.90;;;;;;5035956;28;20175;-61
2021/09/05 07:00:43;;;;;;;9.63;8.73;;;18.20;99.90;;;;;;5035837;28;20278;-61
2021/09/05 07:03:08;;;;;;;9.17;8.30;;;18.40;99.90;;;;;;5036316;28;20187;-61
2021/09/05 07:05:34;;;;;;;9.50;8.63;;;18.50;99.90;;;;;;5035460;28;20182;-61
2021/09/05 07:08:00;;;;;;;10.93;9.83;;;18.60;99.90;;;;;;5035985;28;20175;-61
2021/09/05 07:10:26;;;;;;;9.07;8.17;;;18.60;99.90;;;;;;5035602;28;20174;-61
2021/09/05 07:12:51;;;;;;;11.23;8.10;;;18.70;99.90;;;;;;5035718;28;20203;-61
2021/09/05 07:15:17;;;;;;;10.23;9.30;;;18.90;99.90;;;;;;5035522;28;20251;-61
2021/09/05 07:17:43;;;;;;;10.60;9.60;;;19.00;99.90;;;;;;5035615;28;20176;-61
2021/09/05 07:20:09;;;;;;;11.33;10.23;;;19.10;99.90;;;;;;5040323;28;20289;-61
2021/09/05 07:22:35;;;;;;;12.27;11.00;;;19.20;99.90;;;;;;5055047;28;20683;-61
2021/09/05 07:25:04;;;;;;;10.37;9.33;;;19.30;99.90;;;;;;5055397;28;20504;-61
2021/09/05 07:27:30;;;;;;;13.67;11.20;;;19.20;99.90;;;;;;5055772;28;20596;-61
2021/09/05 07:29:56;;;;;;;11.57;10.47;;;19.20;99.90;;;;;;5055233;28;20401;-60
2021/09/05 07:32:21;;;;;;;11.77;10.53;;;19.30;99.90;;;;;;5055126;28;20409;-60
2021/09/05 07:34:48;;;;;;;10.80;9.87;;;19.50;99.90;;;;;;5055205;28;20273;-60
2021/09/05 07:37:14;;;;;;;12.00;8.30;;;19.60;99.90;;;;;;5054923;28;20170;-59
2021/09/05 07:39:40;;;;;;;11.20;10.10;;;19.70;99.90;;;;;;5055115;28;20417;-61
2021/09/05 07:42:06;;;;;;;10.93;9.90;;;19.90;99.90;;;;;;5055125;28;21014;-61
2021/09/05 07:44:32;;;;;;;10.43;9.23;;;20.00;99.90;;;;;;5054984;28;20671;-61
2021/09/05 07:46:59;;;;;;;10.77;9.23;;;19.90;99.90;;;;;;5055132;28;20401;-61
2021/09/05 07:49:25;;;;;;;11.90;10.80;;;19.80;99.90;;;;;;5055803;28;20263;-61
2021/09/05 07:51:51;;;;;;;9.83;8.93;;;19.70;99.90;;;;;;5054564;28;20466;-59
2021/09/05 07:54:16;;;;;;;8.90;8.00;;;19.70;99.90;;;;;;5054777;28;20433;-61
2021/09/05 07:56:42;;;;;;;10.47;9.40;;;19.90;99.90;;;;;;5054718;28;20171;-60
2021/09/05 07:59:07;;;;;;;10.70;9.60;;;20.10;99.90;;;;;;5048146;28;20182;-59
2021/09/05 08:01:33;;;;;;;11.10;10.00;;;19.90;99.90;;;;;;5041152;28;20191;-60
2021/09/05 08:03:58;;;;;;;10.97;9.87;;;20.00;99.90;;;;;;5034415;28;20546;-60
2021/09/05 08:06:25;;;;;;;10.20;9.30;;;20.10;99.90;;;;;;5034595;28;20250;-58
2021/09/05 08:08:50;;;;;;;12.77;8.07;;;20.10;99.90;;;;;;5034566;28;20178;-60
2021/09/05 08:11:17;;;;;;;10.87;9.77;;;20.20;99.90;;;;;;5034641;28;20461;-60
2021/09/05 08:13:43;;;;;;;9.50;8.27;;;20.20;99.90;;;;;;5034519;28;20450;-60
2021/09/05 08:16:08;;;;;;;10.10;9.17;;;20.10;99.90;;;;;;5057081;23;20183;-54
2021/09/05 08:18:36;;;;;;;9.53;8.53;;;20.30;99.90;;;;;;5033609;28;20180;-53
2021/09/05 08:21:04;;;;;;;10.47;9.43;;;20.40;99.90;;;;;;5033597;28;20249;-52
2021/09/05 08:23:29;;;;;;;10.20;9.30;;;20.40;99.90;;;;;;5034150;28;20410;-53
2021/09/05 08:25:55;;;;;;;10.80;8.93;;;20.50;99.90;;;;;;5034290;28;20413;-52
2021/09/05 08:28:21;;;;;;;10.70;9.63;;;20.40;99.90;;;;;;5034510;28;20178;-52
2021/09/05 08:30:48;;;;;;;10.47;9.37;;;20.50;99.90;;;;;;5034355;28;20167;-51
2021/09/05 08:33:15;;;;;;;9.47;8.57;;;20.50;99.90;;;;;;5033960;28;20297;-53
2021/09/05 08:35:41;;;;;;;9.93;8.27;;;20.50;99.90;;;;;;5033745;28;20493;-52
2021/09/05 08:38:08;;;;;;;8.97;8.13;;;20.60;99.90;;;;;;5033855;28;20509;-54
2021/09/05 08:40:37;;;;;;;9.10;8.27;;;20.80;99.90;;;;;;5034082;28;20168;-57
2021/09/05 08:43:03;;;;;;;8.90;8.10;;;20.90;99.90;;;;;;5034074;28;20410;-54
2021/09/05 08:45:28;;;;;;;10.57;9.40;;;21.00;99.90;;;;;;5034102;28;20409;-49
2021/09/05 08:47:55;;;;;;;9.70;8.60;;;21.10;99.90;;;;;;5025499;28;20263;-48
2021/09/05 08:50:25;;;;;;;9.07;8.17;;;21.20;99.90;;;;;;5014015;28;20239;-50
2021/09/05 08:52:50;;;;;;;9.70;8.10;;;21.40;99.90;;;;;;5014187;28;20409;-55
2021/09/05 08:55:16;;;;;;;10.00;9.00;;;21.50;99.90;;;;;;5014299;28;20400;-54
2021/09/05 08:57:42;;;;;;;8.90;8.10;;;21.70;99.90;;;;;;5014518;28;20192;-55
2021/09/05 09:00:08;;;;;;;8.67;7.53;;;21.90;99.90;;;;;;5014007;28;20243;-52
2021/09/05 09:02:47;;;;;;;8.37;7.57;;;22.00;99.90;;;;;;5013942;28;20200;-49
2021/09/05 09:05:13;;;;;;;9.13;8.20;;;22.00;99.90;;;;;;5013781;28;20407;-57
2021/09/05 09:07:46;;;;;;;9.60;8.67;;;22.20;99.90;;;;;;5013776;28;20469;-56
2021/09/05 09:10:13;;;;;;;10.70;7.70;;;22.40;99.90;;;;;;5014230;28;20211;-57
2021/09/05 09:12:41;;;;;;;9.10;7.40;;;22.40;99.90;;;;;;5013938;28;20403;-58
2021/09/05 09:15:27;;;;;;;8.57;7.73;;;22.60;99.90;;;;;;5013835;28;20418;-57
2021/09/05 09:18:01;;;;;;;7.90;7.17;;;22.90;99.90;;;;;;5028749;28;20511;-57
2021/09/05 09:20:38;;;;;;;7.67;6.97;;;22.90;99.90;;;;;;5033184;28;20399;-56
2021/09/05 09:23:31;;;;;;;7.80;7.00;;;23.00;99.90;;;;;;5033538;28;20409;-58
2021/09/05 09:26:08;;;;;;;7.47;6.77;;;23.20;99.90;;;;;;5033539;28;20379;-57
2021/09/05 09:28:39;;;;;;;7.83;7.10;;;23.40;99.90;;;;;;5033728;28;20382;-57
2021/09/05 09:31:26;;;;;;;7.43;6.73;;;23.50;99.90;;;;;;5033566;28;20406;-57
2021/09/05 09:33:54;;;;;;;7.50;6.90;;;23.60;99.90;;;;;;5033671;28;20383;-57
2021/09/05 09:36:22;;;;;;;8.07;7.37;;;23.50;99.90;;;;;;5032929;28;20517;-57
2021/09/05 09:39:02;;;;;;;7.10;6.50;;;23.60;99.90;;;;;;5033244;28;20459;-57
2021/09/05 09:41:41;;;;;;;7.70;7.00;;;23.60;99.90;;;;;;5032968;28;20441;-57
2021/09/05 09:44:08;;;;;;;7.77;6.97;;;23.70;99.90;;;;;;5033161;28;20433;-57
2021/09/05 09:46:36;;;;;;;6.70;6.10;;;24.10;99.90;;;;;;5032399;28;20438;-58
2021/09/05 09:49:11;;;;;;;6.53;5.93;;;24.20;99.90;;;;;;5032542;28;20950;-57
2021/09/05 09:51:38;;;;;;;7.23;6.53;;;24.50;99.90;;;;;;5032601;28;20485;-55
2021/09/05 09:54:04;;;;;;;7.43;6.63;;;24.90;99.90;;;;;;5033029;28;20394;-58
2021/09/05 09:56:30;;;;;;;6.50;5.80;;;25.20;99.90;;;;;;5032823;28;20948;-57
2021/09/05 09:58:59;;;;;;;6.10;5.50;;;25.30;99.40;;;;;;5033169;28;20402;-57
2021/09/05 10:01:27;;;;;;;6.07;5.40;;;25.60;98.40;;;;;;5032534;28;20495;-57
2021/09/05 10:03:56;;;;;;;6.07;5.57;;;25.50;98.60;;;;;;5033095;28;20497;-57
2021/09/05 10:06:30;;;;;;;6.40;5.80;;;25.10;98.50;;;;;;5032508;28;20426;-56
2021/09/05 10:09:04;;;;;;;5.70;5.20;;;24.70;99.10;;;;;;5033036;28;20383;-57
2021/09/05 10:11:30;;;;;;;8.10;5.53;;;24.60;99.90;;;;;;5033018;28;20405;-56
2021/09/05 10:13:57;;;;;;;5.53;4.90;;;25.10;99.40;;;;;;5033220;28;20398;-57
2021/09/05 10:16:23;;;;;;;5.47;4.97;;;25.30;98.50;;;;;;5032387;28;20456;-57
2021/09/05 10:18:49;;;;;;;5.60;5.10;;;25.50;97.00;;;;;;5032986;28;20418;-57
2021/09/05 10:21:18;;;;;;;6.80;5.00;;;25.50;96.90;;;;;;5032668;28;20199;-56
2021/09/05 10:23:51;;;;;;;5.90;5.40;;;25.40;97.40;;;;;;5033177;28;20768;-57
2021/09/05 10:26:18;;;;;;;5.80;5.23;;;25.40;97.30;;;;;;5036675;28;20422;-57
2021/09/05 10:28:46;;;;;;;5.60;5.10;;;25.20;97.40;;;;;;5036787;28;20394;-55
2021/09/05 10:31:21;;;;;;;5.30;4.80;;;25.20;98.10;;;;;;5037056;28;20414;-58
2021/09/05 10:33:47;;;;;;;5.40;4.90;;;25.40;97.30;;;;;;5036630;28;20809;-56
2021/09/05 10:36:15;;;;;;;5.30;4.80;;;25.50;96.70;;;;;;5036253;28;20410;-58
2021/09/05 10:38:42;;;;;;;5.77;5.27;;;25.40;96.90;;;;;;5036179;28;20176;-57
2021/09/05 10:41:20;;;;;;;5.63;5.03;;;25.30;96.70;;;;;;5036120;28;20441;-57
2021/09/05 10:43:49;;;;;;;7.13;5.17;;;25.60;97.70;;;;;;5036448;28;20389;-58
2021/09/05 10:46:27;;;;;;;5.70;5.20;;;26.00;96.00;;;;;;5026719;28;20423;-57
2021/09/05 10:48:58;;;;;;;5.57;5.00;;;26.40;94.90;;;;;;5036267;28;20538;-58
2021/09/05 10:51:31;;;;;;;5.17;4.73;;;28.40;93.40;;;;;;5036064;28;20406;-58
2021/09/05 10:54:03;;;;;;;5.83;5.13;;;29.00;88.90;;;;;;5036201;28;20432;-58
2021/09/05 10:56:40;;;;;;;5.83;4.97;;;28.40;88.30;;;;;;5036064;28;20429;-58
2021/09/05 10:59:18;;;;;;;4.67;4.27;;;30.00;89.30;;;;;;5036132;28;20417;-58
2021/09/05 11:01:46;;;;;;;6.30;4.77;;;30.30;81.90;;;;;;5035744;28;20500;-58
2021/09/05 11:04:12;;;;;;;4.30;4.00;;;31.50;79.30;;;;;;5035818;28;20767;-58
2021/09/05 11:07:01;;;;;;;4.50;4.00;;;32.60;75.10;;;;;;5035368;28;20425;-58
2021/09/05 11:09:27;;;;;;;4.90;4.40;;;33.20;70.70;;;;;;5034049;28;20163;-58
2021/09/05 11:11:59;;;;;;;4.40;4.00;;;32.80;69.40;;;;;;5035941;28;20463;-58
2021/09/05 11:14:37;;;;;;;5.00;4.50;;;32.30;68.00;;;;;;5035743;28;20168;-58
2021/09/05 11:17:10;;;;;;;4.73;4.33;;;31.00;67.80;;;;;;5035163;28;20457;-58
2021/09/05 11:19:41;;;;;;;4.90;4.50;;;31.20;69.10;;;;;;5035801;28;20418;-57
2021/09/05 11:22:08;;;;;;;5.13;4.63;;;31.90;69.40;;;;;;5035708;28;20438;-57
2021/09/05 11:24:34;;;;;;;4.70;4.30;;;32.40;64.10;;;;;;5035765;28;20406;-58
2021/09/05 11:27:01;;;;;;;5.43;4.10;;;33.10;62.00;;;;;;5035624;28;20429;-58
2021/09/05 11:29:27;;;;;;;4.70;4.30;;;33.10;62.70;;;;;;5035536;28;20194;-58
2021/09/05 11:32:05;;;;;;;4.80;4.40;;;33.90;58.30;;;;;;5034943;28;20497;-58
2021/09/05 11:34:31;;;;;;;4.77;4.37;;;32.20;62.20;;;;;;5035510;28;20533;-58
2021/09/05 11:36:56;;;;;;;3.83;3.50;;;33.10;58.90;;;;;;5034901;28;20426;-58
2021/09/05 11:39:22;;;;;;;4.50;4.10;;;34.30;56.10;;;;;;5035033;28;20433;-57
2021/09/05 11:41:52;;;;;;;5.27;4.80;;;35.60;54.30;;;;;;5035221;28;20188;-57
2021/09/05 11:44:34;;;;;;;5.87;4.40;;;34.50;54.60;;;;;;5035365;28;20171;-58
2021/09/05 11:47:13;;;;;;;4.40;4.00;;;33.90;57.60;;;;;;5034777;28;20477;-58
2021/09/05 11:49:51;;;;;;;4.13;3.83;;;34.10;55.60;;;;;;5035168;28;20385;-57
2021/09/05 11:52:28;;;;;;;4.40;4.00;;;34.50;53.30;;;;;;5034650;28;20406;-58
2021/09/05 11:55:09;;;;;;;4.60;4.20;;;34.80;52.80;;;;;;5036009;28;20397;-58
2021/09/05 11:57:36;;;;;;;4.20;3.80;;;36.20;51.00;;;;;;5035404;28;20437;-59
2021/09/05 12:00:06;;;;;;;4.80;4.43;;;35.70;50.90;;;;;;5034858;28;20407;-57
2021/09/05 12:02:37;;;;;;;5.20;4.70;;;35.50;53.30;;;;;;5035070;28;20456;-58
2021/09/05 12:05:05;;;;;;;4.43;4.03;;;35.70;50.20;;;;;;5034952;28;20379;-58
2021/09/05 12:07:36;;;;;;;4.90;4.50;;;35.80;51.20;;;;;;5034518;28;20450;-58
2021/09/05 12:10:04;;;;;;;4.60;3.93;;;35.50;50.30;;;;;;5034626;28;20945;-59
2021/09/05 12:12:30;;;;;;;4.63;4.17;;;34.60;52.20;;;;;;5034826;28;20476;-58
2021/09/05 12:14:55;;;;;;;4.60;4.20;;;34.90;51.30;;;;;;5034699;28;20906;-58
2021/09/05 12:17:29;;;;;;;4.97;4.10;;;35.00;52.40;;;;;;5035883;28;20679;-57
2021/09/05 12:20:09;;;;;;;4.47;4.10;;;35.50;51.10;;;;;;5034692;28;20175;-56
2021/09/05 12:22:54;;;;;;;4.40;4.00;;;36.60;51.80;;;;;;5034439;28;20437;-57
2021/09/05 12:25:22;;;;;;;4.80;4.30;;;37.30;49.50;;;;;;5034486;28;20456;-58
2021/09/05 12:28:07;;;;;;;4.23;3.93;;;37.60;48.80;;;;;;5034424;28;20422;-58
2021/09/05 12:30:37;;;;;;;4.47;4.17;;;38.70;45.90;;;;;;5016740;28;20910;-57
2021/09/05 12:33:16;;;;;;;4.50;4.10;;;37.50;48.20;;;;;;5034120;28;20406;-57
2021/09/05 12:35:50;;;;;;;4.70;3.90;;;37.10;47.90;;;;;;5034506;28;20414;-56
2021/09/05 12:38:30;;;;;;;4.80;4.40;;;36.90;47.60;;;;;;5034788;28;20422;-56
2021/09/05 12:41:06;;;;;;;4.03;3.73;;;36.00;46.70;;;;;;5034066;28;20481;-57
2021/09/05 12:43:41;;;;;;;4.23;3.83;;;35.70;47.50;;;;;;5034696;28;20396;-58
2021/09/05 12:46:07;;;;;;;4.17;3.87;;;35.20;49.40;;;;;;5033203;28;20417;-57
2021/09/05 12:48:44;;;;;;;4.67;4.27;;;34.60;49.70;;;;;;5033136;28;20405;-57